createdAt,value
2018-04-12T00:01:09.331Z,8.17
2018-04-12T00:03:36.842Z,8.73
2018-04-12T00:06:04.418Z,7.83
2018-04-12T00:08:32.766Z,7.93
2018-04-12T00:11:00.316Z,7.17
2018-04-12T00:13:28.596Z,7.73
2018-04-12T00:15:56.204Z,7.53
2018-04-12T00:18:23.756Z,7.87
2018-04-12T00:20:51.327Z,9.73
2018-04-12T00:23:18.854Z,9.90
2018-04-12T00:25:46.378Z,10.63
2018-04-12T00:28:13.926Z,9.90
2018-04-12T00:30:41.472Z,9.87
2018-04-12T00:33:09.029Z,10.43
2018-04-12T00:35:36.556Z,10.53
2018-04-12T00:38:04.861Z,10.13
2018-04-12T00:40:32.378Z,9.23
2018-04-12T00:42:59.944Z,10.03
2018-04-12T00:45:28.281Z,9.60
2018-04-12T00:47:56.619Z,9.93
2018-04-12T00:50:24.145Z,10.43
2018-04-12T00:52:51.688Z,9.47
2018-04-12T00:55:19.216Z,9.57
2018-04-12T00:57:46.760Z,11.17
2018-04-12T01:00:14.296Z,9.83
2018-04-12T01:02:42.611Z,9.90
2018-04-12T01:05:10.132Z,8.97
2018-04-12T01:07:37.686Z,9.63
2018-04-12T01:10:05.268Z,9.30
2018-04-12T01:12:32.862Z,9.80
2018-04-12T01:15:00.484Z,9.63
2018-04-12T01:17:28.026Z,9.90
2018-04-12T01:19:55.579Z,9.10
2018-04-12T01:22:23.096Z,9.43
2018-04-12T01:24:50.611Z,9.57
2018-04-12T01:27:18.195Z,9.53
2018-04-12T01:29:45.774Z,8.80
2018-04-12T01:32:13.291Z,8.93
2018-04-12T01:34:41.620Z,9.67
2018-04-12T01:37:09.168Z,8.90
2018-04-12T01:39:36.776Z,8.47
2018-04-12T01:42:04.362Z,9.73
2018-04-12T01:44:31.889Z,8.53
2018-04-12T01:47:00.209Z,8.40
2018-04-12T01:49:27.750Z,8.90
2018-04-12T01:51:55.283Z,8.43
2018-04-12T01:54:22.857Z,8.57
2018-04-12T01:56:51.129Z,8.20
2018-04-12T01:59:19.453Z,7.83
2018-04-12T02:01:47.763Z,8.10
2018-04-12T02:04:15.276Z,7.73
2018-04-12T02:06:42.828Z,8.50
2018-04-12T02:09:10.401Z,7.30
2018-04-12T02:11:37.939Z,7.23
2018-04-12T02:14:05.466Z,6.70
2018-04-12T02:16:33.798Z,6.33
2018-04-12T02:19:01.348Z,5.70
2018-04-12T02:21:28.895Z,5.00
2018-04-12T02:23:56.440Z,4.93
2018-04-12T02:26:24.756Z,3.90
2018-04-12T02:28:52.330Z,4.80
2018-04-12T02:31:19.862Z,3.67
2018-04-12T02:33:47.436Z,5.23
2018-04-12T02:36:14.972Z,3.93
2018-04-12T02:38:42.521Z,4.80
2018-04-12T02:41:10.112Z,4.43
2018-04-12T02:43:37.655Z,4.10
2018-04-12T02:46:05.186Z,3.90
2018-04-12T02:48:33.467Z,3.77
2018-04-12T02:51:01.002Z,3.80
2018-04-12T02:53:29.347Z,3.80
2018-04-12T02:55:56.877Z,4.50
2018-04-12T02:58:24.419Z,4.03
2018-04-12T03:00:52.761Z,3.40
2018-04-12T03:03:21.100Z,3.87
2018-04-12T03:05:48.659Z,2.90
2018-04-12T03:08:16.217Z,3.00
2018-04-12T03:10:44.485Z,3.27
2018-04-12T03:13:12.014Z,3.47
2018-04-12T03:15:40.301Z,3.30
2018-04-12T03:18:07.841Z,3.50
2018-04-12T03:20:36.151Z,3.40
2018-04-12T03:23:03.674Z,3.53
2018-04-12T03:25:32.151Z,2.80
2018-04-12T03:28:00.437Z,3.70
2018-04-12T03:30:27.994Z,3.17
2018-04-12T03:32:55.553Z,2.87
2018-04-12T03:35:23.063Z,3.50
2018-04-12T03:37:50.588Z,3.23
2018-04-12T03:40:18.104Z,3.03
2018-04-12T03:42:47.146Z,2.50
2018-04-12T03:45:14.678Z,3.33
2018-04-12T03:47:42.240Z,3.00
2018-04-12T03:50:10.558Z,3.17
2018-04-12T03:52:38.078Z,3.23
2018-04-12T03:55:06.402Z,3.40
2018-04-12T03:57:33.933Z,3.43
2018-04-12T04:00:01.533Z,3.00
2018-04-12T04:02:29.118Z,3.27
2018-04-12T04:04:56.677Z,2.77
2018-04-12T04:07:24.254Z,3.37
2018-04-12T04:09:51.843Z,3.27
2018-04-12T04:12:19.393Z,3.17
2018-04-12T04:18:01.836Z,2.80
2018-04-12T04:20:41.216Z,2.90
2018-04-12T04:23:08.797Z,3.07
2018-04-12T04:25:37.110Z,3.43
2018-04-12T04:28:04.653Z,2.93
2018-04-12T04:30:32.279Z,3.57
2018-04-12T04:32:59.864Z,3.23
2018-04-12T04:35:27.389Z,3.20
2018-04-12T04:37:55.021Z,3.23
2018-04-12T04:40:22.571Z,3.07
2018-04-12T04:42:50.127Z,2.93
2018-04-12T04:45:17.657Z,3.10
2018-04-12T04:47:45.206Z,3.27
2018-04-12T04:50:13.523Z,3.20
2018-04-12T04:52:41.079Z,2.90
2018-04-12T04:55:08.632Z,3.20
2018-04-12T04:57:36.204Z,2.97
2018-04-12T05:00:03.761Z,3.33
2018-04-12T05:02:31.298Z,2.70
2018-04-12T05:04:58.864Z,2.97
2018-04-12T05:07:26.372Z,3.20
2018-04-12T05:09:53.933Z,2.80
2018-04-12T05:12:21.451Z,2.70
2018-04-12T05:14:48.991Z,3.00
2018-04-12T05:17:16.573Z,2.60
2018-04-12T05:19:44.135Z,2.73
2018-04-12T05:22:11.681Z,2.50
2018-04-12T05:24:39.206Z,3.07
2018-04-12T05:27:06.772Z,2.73
2018-04-12T05:29:34.404Z,2.20
2018-04-12T05:32:01.961Z,3.10
2018-04-12T05:34:29.495Z,2.20
2018-04-12T05:36:57.036Z,2.47
2018-04-12T05:39:24.839Z,2.87
2018-04-12T05:41:52.378Z,2.67
2018-04-12T05:44:20.028Z,2.23
2018-04-12T05:46:47.622Z,2.53
2018-04-12T05:49:15.191Z,2.80
2018-04-12T05:51:42.751Z,2.83
2018-04-12T05:54:10.285Z,2.80
2018-04-12T05:56:37.802Z,3.23
2018-04-12T05:59:05.372Z,3.43
2018-04-12T06:01:33.431Z,2.83
2018-04-12T06:04:01.191Z,2.50
2018-04-12T06:06:28.732Z,3.20
2018-04-12T06:08:57.009Z,2.37
2018-04-12T06:11:25.311Z,3.03
2018-04-12T06:13:52.876Z,2.80
2018-04-12T06:16:21.188Z,3.10
2018-04-12T06:18:48.713Z,3.00
2018-04-12T06:21:16.267Z,2.90
2018-04-12T06:23:43.869Z,2.80
2018-04-12T06:26:11.401Z,3.27
2018-04-12T06:28:38.944Z,2.77
2018-04-12T06:31:06.484Z,3.13
2018-04-12T06:33:34.058Z,2.80
2018-04-12T06:36:01.661Z,2.63
2018-04-12T06:38:29.251Z,3.47
2018-04-12T06:40:57.629Z,2.80
2018-04-12T06:43:25.930Z,3.73
2018-04-12T06:45:53.531Z,3.37
2018-04-12T06:48:21.305Z,3.03
2018-04-12T06:50:48.859Z,3.83
2018-04-12T06:53:16.416Z,3.33
2018-04-12T06:55:45.498Z,3.50
2018-04-12T06:58:13.014Z,3.77
2018-04-12T07:00:40.605Z,3.40
2018-04-12T07:03:08.191Z,3.40
2018-04-12T07:05:35.702Z,3.90
2018-04-12T07:08:03.239Z,3.27
2018-04-12T07:10:30.856Z,3.73
2018-04-12T07:12:58.487Z,3.80
2018-04-12T07:15:26.014Z,3.00
2018-04-12T07:17:53.607Z,3.80
2018-04-12T07:20:21.747Z,3.37
2018-04-12T07:22:50.055Z,3.40
2018-04-12T07:25:17.625Z,2.60
2018-04-12T07:27:45.156Z,2.30
2018-04-12T07:30:12.713Z,2.27
2018-04-12T07:32:40.247Z,2.13
2018-04-12T07:35:08.563Z,2.40
2018-04-12T07:37:36.271Z,2.13
2018-04-12T07:40:03.923Z,2.37
2018-04-12T07:42:31.490Z,2.83
2018-04-12T07:44:59.015Z,2.33
2018-04-12T07:47:26.609Z,2.70
2018-04-12T07:49:54.189Z,2.80
2018-04-12T07:52:22.501Z,2.40
2018-04-12T07:54:50.123Z,2.00
2018-04-12T07:57:18.412Z,2.37
2018-04-12T07:59:46.751Z,2.60
2018-04-12T08:02:14.302Z,3.33
2018-04-12T08:04:42.584Z,9.93
2018-04-12T08:07:10.122Z,18.87
2018-04-12T08:09:37.682Z,10.03
2018-04-12T08:12:05.254Z,6.23
2018-04-12T08:14:32.795Z,15.43
2018-04-12T08:17:00.382Z,4.10
2018-04-12T08:19:27.913Z,2.30
2018-04-12T08:21:55.569Z,2.17
2018-04-12T08:24:23.108Z,3.07
2018-04-12T08:26:50.690Z,2.47
2018-04-12T08:29:18.225Z,5.07
2018-04-12T08:31:45.862Z,3.20
2018-04-12T08:34:13.459Z,1.80
2018-04-12T08:36:40.990Z,1.83
2018-04-12T08:39:09.299Z,2.00
2018-04-12T08:41:36.946Z,2.07
2018-04-12T08:44:04.494Z,2.60
2018-04-12T08:46:32.791Z,2.00
2018-04-12T08:49:00.355Z,1.80
2018-04-12T08:51:27.920Z,1.90
2018-04-12T08:53:55.471Z,2.20
2018-04-12T08:56:23.000Z,2.10
2018-04-12T08:58:51.436Z,2.03
2018-04-12T09:01:18.985Z,2.07
2018-04-12T09:03:46.641Z,1.67
2018-04-12T09:06:14.182Z,2.40
2018-04-12T09:08:41.707Z,2.70
2018-04-12T09:11:09.244Z,2.10
2018-04-12T09:13:36.812Z,3.50
2018-04-12T09:16:04.406Z,2.80
2018-04-12T09:18:31.957Z,2.70
2018-04-12T09:21:00.290Z,2.00
2018-04-12T09:23:27.865Z,2.10
2018-04-12T09:25:55.439Z,2.70
2018-04-12T09:28:22.981Z,2.37
2018-04-12T09:30:50.544Z,2.33
2018-04-12T09:33:18.535Z,2.73
2018-04-12T09:35:46.117Z,2.40
2018-04-12T09:38:13.696Z,1.97
2018-04-12T09:40:41.234Z,2.00
2018-04-12T09:43:08.849Z,3.70
2018-04-12T09:45:36.526Z,3.87
2018-04-12T09:48:04.821Z,3.17
2018-04-12T09:50:33.221Z,2.70
2018-04-12T09:53:00.745Z,22.17
2018-04-12T09:55:29.115Z,14.90
2018-04-12T09:57:56.660Z,2.80
2018-04-12T10:00:27.274Z,41.80
2018-04-12T10:02:55.821Z,19.97
2018-04-12T10:05:29.176Z,3.47
2018-04-12T10:08:02.443Z,5.57
2018-04-12T10:10:30.015Z,2.70
2018-04-12T10:12:57.592Z,2.10
2018-04-12T10:15:25.185Z,2.03
2018-04-12T10:17:52.744Z,1.97
2018-04-12T10:20:20.468Z,1.90
2018-04-12T10:22:48.021Z,1.80
2018-04-12T10:25:15.576Z,1.70
2018-04-12T10:27:43.122Z,1.90
2018-04-12T10:30:10.647Z,1.70
2018-04-12T10:32:38.258Z,2.03
2018-04-12T10:35:05.808Z,1.90
2018-04-12T10:37:33.394Z,1.40
2018-04-12T10:40:01.771Z,2.40
2018-04-12T10:42:29.313Z,2.57
2018-04-12T10:44:56.918Z,2.20
2018-04-12T10:47:24.470Z,1.87
2018-04-12T10:49:52.023Z,1.70
2018-04-12T10:52:20.324Z,3.33
2018-04-12T10:54:47.855Z,2.10
2018-04-12T10:57:15.398Z,3.47
2018-04-12T10:59:43.035Z,1.40
2018-04-12T11:02:10.587Z,2.53
2018-04-12T11:04:38.179Z,3.27
2018-04-12T11:07:05.715Z,1.80
2018-04-12T11:09:33.268Z,2.37
2018-04-12T11:12:00.800Z,2.07
2018-04-12T11:14:28.328Z,1.40
2018-04-12T11:16:55.879Z,2.17
2018-04-12T11:19:23.432Z,1.37
2018-04-12T11:21:50.991Z,2.20
2018-04-12T11:24:18.587Z,1.70
2018-04-12T11:26:46.169Z,1.50
2018-04-12T11:29:13.820Z,2.03
2018-04-12T11:31:41.535Z,1.80
2018-04-12T11:34:09.878Z,1.77
2018-04-12T11:36:37.425Z,1.60
2018-04-12T11:39:06.808Z,1.30
2018-04-12T11:41:34.417Z,2.20
2018-04-12T11:44:01.954Z,1.57
2018-04-12T11:46:29.470Z,2.10
2018-04-12T11:48:57.023Z,1.73
2018-04-12T11:51:24.564Z,2.60
2018-04-12T11:53:52.145Z,1.93
2018-04-12T11:56:19.751Z,1.50
2018-04-12T11:58:47.339Z,2.10
2018-04-12T12:01:15.727Z,1.60
2018-04-12T12:03:44.068Z,2.13
2018-04-12T12:06:11.624Z,1.90
2018-04-12T12:08:39.197Z,1.77
2018-04-12T12:11:06.809Z,2.03
2018-04-12T12:13:34.381Z,2.00
2018-04-12T12:16:01.958Z,1.70
2018-04-12T12:18:29.604Z,2.13
2018-04-12T12:20:57.183Z,1.87
2018-04-12T12:23:24.792Z,1.80
2018-04-12T12:25:52.411Z,2.20
2018-04-12T12:28:20.130Z,2.13
2018-04-12T12:30:47.679Z,2.13
2018-04-12T12:33:15.251Z,1.93
2018-04-12T12:35:43.726Z,1.90
2018-04-12T12:38:11.309Z,2.10
2018-04-12T12:40:38.963Z,2.47
2018-04-12T12:43:06.505Z,2.70
2018-04-12T12:45:34.170Z,2.13
2018-04-12T12:48:01.721Z,2.00
2018-04-12T12:50:35.623Z,2.10
2018-04-12T12:53:03.928Z,1.80
2018-04-12T12:55:31.455Z,1.87
2018-04-12T12:58:05.760Z,2.33
2018-04-12T13:00:34.055Z,2.40
2018-04-12T13:03:08.235Z,2.50
2018-04-12T13:05:41.591Z,2.40
2018-04-12T13:08:09.179Z,2.40
2018-04-12T13:10:43.240Z,2.33
2018-04-12T13:13:11.204Z,1.80
2018-04-12T13:15:38.784Z,2.13
2018-04-12T13:18:06.341Z,1.47
2018-04-12T13:20:39.908Z,2.13
2018-04-12T13:23:13.280Z,1.70
2018-04-12T13:25:46.687Z,2.13
2018-04-12T13:28:14.188Z,1.67
2018-04-12T13:30:47.604Z,2.03
2018-04-12T13:33:15.200Z,2.27
2018-04-12T13:35:42.811Z,1.83
2018-04-12T13:38:10.555Z,2.20
2018-04-12T13:40:44.071Z,2.60
2018-04-12T13:43:11.618Z,2.60
2018-04-12T13:45:39.192Z,2.80
2018-04-12T13:48:06.726Z,2.40
2018-04-12T13:50:34.336Z,2.70
2018-04-12T13:53:08.468Z,2.13
2018-04-12T13:55:36.051Z,2.40
2018-04-12T13:58:03.674Z,2.40
2018-04-12T14:00:31.292Z,2.57
2018-04-12T14:03:04.571Z,2.70
2018-04-12T14:05:38.561Z,2.90
2018-04-12T14:08:06.187Z,2.47
2018-04-12T14:10:33.726Z,2.30
2018-04-12T14:13:07.218Z,2.97
2018-04-12T14:15:34.746Z,2.50
2018-04-12T14:18:09.060Z,2.47
2018-04-12T14:20:37.435Z,2.60
2018-04-12T14:23:05.137Z,2.63
2018-04-12T14:25:38.244Z,2.70
2018-04-12T14:28:05.793Z,2.63
2018-04-12T14:30:39.179Z,2.73
2018-04-12T14:33:07.110Z,2.20
2018-04-12T14:35:35.412Z,2.57
2018-04-12T14:38:08.832Z,2.80
2018-04-12T14:40:36.346Z,3.07
2018-04-12T14:43:04.679Z,2.40
2018-04-12T14:45:38.115Z,2.53
2018-04-12T14:48:11.665Z,2.10
2018-04-12T14:50:39.245Z,2.40
2018-04-12T14:53:06.808Z,2.50
2018-04-12T14:55:40.055Z,3.00
2018-04-12T14:58:13.513Z,2.63
2018-04-12T15:00:46.969Z,2.63
2018-04-12T15:03:14.623Z,3.40
2018-04-12T15:05:42.149Z,3.17
2018-04-12T15:08:15.545Z,4.30
2018-04-12T15:10:43.975Z,3.20
2018-04-12T15:13:11.548Z,2.80
2018-04-12T15:15:39.103Z,2.90
2018-04-12T15:18:12.441Z,2.80
2018-04-12T15:20:46.493Z,2.00
2018-04-12T15:23:14.069Z,2.77
2018-04-12T15:25:47.416Z,6.93
2018-04-12T15:28:14.965Z,2.30
2018-04-12T15:30:44.617Z,2.23
2018-04-12T15:33:17.709Z,2.63
2018-04-12T15:35:45.287Z,2.20
2018-04-12T15:38:18.918Z,2.00
2018-04-12T15:40:47.252Z,2.07
2018-04-12T15:43:14.829Z,2.00
2018-04-12T15:45:42.383Z,1.93
2018-04-12T15:48:21.902Z,2.90
2018-04-12T15:51:01.198Z,2.77
2018-04-12T15:53:29.536Z,2.17
2018-04-12T15:56:02.878Z,2.40
2018-04-12T15:58:30.441Z,2.80
2018-04-12T16:01:03.731Z,2.50
2018-04-12T16:03:48.931Z,7.07
2018-04-12T16:06:16.505Z,7.23
2018-04-12T16:08:44.104Z,6.53
2018-04-12T16:11:18.379Z,4.70
2018-04-12T16:13:51.784Z,4.87
2018-04-12T16:16:24.956Z,4.37
2018-04-12T16:18:52.488Z,3.77
2018-04-12T16:21:25.935Z,3.87
2018-04-12T16:23:53.511Z,3.87
2018-04-12T16:26:27.518Z,3.70
2018-04-12T16:28:55.051Z,4.20
2018-04-12T16:31:22.594Z,3.47
2018-04-12T16:33:55.869Z,3.93
2018-04-12T16:36:23.416Z,3.80
2018-04-12T16:38:51.194Z,3.30
2018-04-12T16:41:18.781Z,3.50
2018-04-12T16:43:46.313Z,3.47
2018-04-12T16:46:19.834Z,3.73
2018-04-12T16:48:53.307Z,4.07
2018-04-12T16:51:20.917Z,6.20
2018-04-12T16:53:48.447Z,4.77
2018-04-12T16:56:16.106Z,4.50
2018-04-12T16:58:49.505Z,4.10
2018-04-12T17:01:22.829Z,3.77
2018-04-12T17:03:56.017Z,3.40
2018-04-12T17:06:23.632Z,3.70
2018-04-12T17:08:56.771Z,3.70
2018-04-12T17:11:36.200Z,3.53
2018-04-12T17:14:09.314Z,4.17
2018-04-12T17:16:37.067Z,4.13
2018-04-12T17:19:10.374Z,3.77
2018-04-12T17:21:38.762Z,3.60
2018-04-12T17:24:07.072Z,4.37
2018-04-12T17:26:40.585Z,4.73
2018-04-12T17:29:08.171Z,4.10
2018-04-12T17:31:35.851Z,4.77
2018-04-12T17:34:10.664Z,4.57
2018-04-12T17:36:39.005Z,4.70
2018-04-12T17:39:06.656Z,5.07
2018-04-12T17:41:34.194Z,4.07
2018-04-12T17:44:01.797Z,4.87
2018-04-12T17:46:29.505Z,4.53
2018-04-12T17:48:57.057Z,5.13
2018-04-12T17:51:25.369Z,4.40
2018-04-12T17:53:53.031Z,4.80
2018-04-12T17:56:20.634Z,4.73
2018-04-12T17:58:59.963Z,5.63
2018-04-12T18:01:33.458Z,5.43
2018-04-12T18:04:01.787Z,4.80
2018-04-12T18:06:29.319Z,4.90
2018-04-12T18:09:03.599Z,5.77
2018-04-12T18:11:31.143Z,5.43
2018-04-12T18:13:58.709Z,5.40
2018-04-12T18:16:27.035Z,8.67
2018-04-12T18:18:55.350Z,6.13
2018-04-12T18:21:22.971Z,5.33
2018-04-12T18:23:57.080Z,5.27
2018-04-12T18:26:24.734Z,5.70
2018-04-12T18:31:32.439Z,5.57
2018-04-12T18:34:05.993Z,5.47
2018-04-12T18:36:33.604Z,5.68
2018-04-12T18:39:07.003Z,5.80
2018-04-12T18:41:34.902Z,5.30
2018-04-12T18:44:02.532Z,5.60
2018-04-12T18:46:31.038Z,5.80
2018-04-12T18:49:00.241Z,5.37
2018-04-12T18:51:27.794Z,5.87
2018-04-12T18:53:57.133Z,6.20
2018-04-12T18:56:31.552Z,6.10
2018-04-12T18:58:59.378Z,8.53
2018-04-12T19:01:38.693Z,8.43
2018-04-12T19:04:12.264Z,6.23
2018-04-12T19:06:40.041Z,6.30
2018-04-12T19:09:08.442Z,6.03
2018-04-12T19:11:36.907Z,6.30
2018-04-12T19:14:10.432Z,7.00
2018-04-12T19:16:38.047Z,8.87
2018-04-12T19:19:05.743Z,9.47
2018-04-12T19:21:33.463Z,8.17
2018-04-12T19:24:06.996Z,7.43
2018-04-12T19:26:34.919Z,7.60
2018-04-12T19:29:03.416Z,8.00
2018-04-12T19:31:37.582Z,9.57
2018-04-12T19:34:05.898Z,8.37
2018-04-12T19:36:33.684Z,9.57
2018-04-12T19:39:06.965Z,8.97
2018-04-12T19:41:34.585Z,8.23
2018-04-12T19:44:07.918Z,7.97
2018-04-12T19:46:35.697Z,8.27
2018-04-12T19:49:03.352Z,7.73
2018-04-12T19:51:31.209Z,7.20
2018-04-12T19:53:58.883Z,7.40
2018-04-12T19:56:33.407Z,6.30
2018-04-12T19:59:01.480Z,6.23
2018-04-12T20:01:30.046Z,6.03
2018-04-12T20:03:57.630Z,5.50
2018-04-12T20:06:25.578Z,6.67
2018-04-12T20:08:53.323Z,5.47
2018-04-12T20:11:27.611Z,5.50
2018-04-12T20:13:56.692Z,4.10
2018-04-12T20:16:25.144Z,3.60
2018-04-12T20:18:58.682Z,3.30
2018-04-12T20:21:27.070Z,2.63
2018-04-12T20:24:00.737Z,2.60
2018-04-12T20:26:28.504Z,2.95
2018-04-12T20:28:56.449Z,2.63
2018-04-12T20:31:24.086Z,2.50
2018-04-12T20:33:57.770Z,2.60
2018-04-12T20:36:32.051Z,2.17
2018-04-12T20:38:59.844Z,2.50
2018-04-12T20:41:28.854Z,2.60
2018-04-12T20:43:56.602Z,2.67
2018-04-12T20:46:24.339Z,2.40
2018-04-12T20:48:57.747Z,2.50
2018-04-12T20:51:25.455Z,2.30
2018-04-12T20:53:53.054Z,2.37
2018-04-12T20:56:20.737Z,2.07
2018-04-12T20:58:48.715Z,2.50
2018-04-12T21:01:16.412Z,2.33
2018-04-12T21:03:49.999Z,2.33
2018-04-12T21:06:23.544Z,2.33
2018-04-12T21:09:02.634Z,2.23
2018-04-12T21:11:30.223Z,2.30
2018-04-12T21:13:57.863Z,2.40
2018-04-12T21:16:25.414Z,2.30
2018-04-12T21:18:52.967Z,2.50
2018-04-12T21:21:20.637Z,3.03
2018-04-12T21:23:48.192Z,2.90
2018-04-12T21:26:27.247Z,2.50
2018-04-12T21:29:00.753Z,2.87
2018-04-12T21:31:28.378Z,3.23
2018-04-12T21:33:55.958Z,3.20
2018-04-12T21:36:23.531Z,4.00
2018-04-12T21:38:51.979Z,3.97
2018-04-12T21:41:25.454Z,3.80
2018-04-12T21:43:53.099Z,3.20
2018-04-12T21:46:20.710Z,2.80
2018-04-12T21:48:49.083Z,4.20
2018-04-12T21:51:16.683Z,3.70
2018-04-12T21:53:44.261Z,3.93
2018-04-12T21:56:11.900Z,3.40
2018-04-12T21:58:39.449Z,3.47
2018-04-12T22:01:06.991Z,3.50
2018-04-12T22:03:34.588Z,3.37
2018-04-12T22:06:08.533Z,3.30
2018-04-12T22:08:41.957Z,3.80
2018-04-12T22:11:09.571Z,3.00
2018-04-12T22:13:42.883Z,3.37
2018-04-12T22:16:17.013Z,3.30
2018-04-12T22:18:44.561Z,3.50
2018-04-12T22:21:12.110Z,3.47
2018-04-12T22:23:45.593Z,3.00
2018-04-12T22:26:13.134Z,2.97
2018-04-12T22:28:47.203Z,3.60
2018-04-12T22:31:14.759Z,3.47
2018-04-12T22:33:48.120Z,3.67
2018-04-12T22:36:15.664Z,3.40
2018-04-12T22:38:48.936Z,3.53
2018-04-12T22:41:16.504Z,3.73
2018-04-12T22:43:44.866Z,4.97
2018-04-12T22:46:18.220Z,3.90
2018-04-12T22:48:45.778Z,3.60
2018-04-12T22:51:19.013Z,4.53
2018-04-12T22:53:46.741Z,3.50
2018-04-12T22:56:20.881Z,4.13
2018-04-12T22:58:54.429Z,3.57
2018-04-12T23:01:22.043Z,3.63
2018-04-12T23:03:49.593Z,3.40
2018-04-12T23:06:17.162Z,3.20
2018-04-12T23:08:44.761Z,3.33
2018-04-12T23:11:12.320Z,3.63
2018-04-12T23:13:39.989Z,3.53
2018-04-12T23:16:07.551Z,4.03
2018-04-12T23:18:35.198Z,4.03
2018-04-12T23:21:03.599Z,4.57
2018-04-12T23:23:36.999Z,3.83
2018-04-12T23:26:04.648Z,4.43
2018-04-12T23:28:32.321Z,4.37
2018-04-12T23:31:05.869Z,4.10
2018-04-12T23:33:33.507Z,4.83
2018-04-12T23:36:01.140Z,4.20
2018-04-12T23:38:28.665Z,5.70
2018-04-12T23:40:57.190Z,4.50
2018-04-12T23:43:36.647Z,13.70
2018-04-12T23:46:04.191Z,4.33
2018-04-12T23:48:43.490Z,4.90
2018-04-12T23:51:11.792Z,4.50
2018-04-12T23:53:39.417Z,4.50
2018-04-12T23:56:07.749Z,4.70
2018-04-12T23:58:35.329Z,4.50
